createdAt,value
2018-06-14T00:00:01.888Z,0.00
2018-06-14T00:00:40.827Z,0.00
2018-06-14T00:01:40.744Z,0.00
2018-06-14T00:02:40.666Z,0.00
2018-06-14T00:04:01.575Z,0.00
2018-06-14T00:05:01.489Z,0.00
2018-06-14T00:05:40.434Z,0.00
2018-06-14T00:06:40.411Z,0.00
2018-06-14T00:07:40.287Z,0.00
2018-06-14T00:09:01.197Z,0.00
2018-06-14T00:10:01.872Z,0.00
2018-06-14T00:10:40.808Z,0.00
2018-06-14T00:11:40.755Z,0.00
2018-06-14T00:12:39.911Z,0.00
2018-06-14T00:14:00.838Z,0.00
2018-06-14T00:15:00.761Z,0.00
2018-06-14T00:15:39.685Z,0.00
2018-06-14T00:16:39.648Z,0.00
2018-06-14T00:17:39.555Z,0.00
2018-06-14T00:19:00.468Z,0.00
2018-06-14T00:20:00.373Z,0.00
2018-06-14T00:20:39.319Z,0.00
2018-06-14T00:21:39.249Z,0.00
2018-06-14T00:22:39.914Z,0.00
2018-06-14T00:24:00.821Z,0.00
2018-06-14T00:25:00.842Z,0.00
2018-06-14T00:25:38.958Z,0.00
2018-06-14T00:26:38.888Z,0.00
2018-06-14T00:27:38.794Z,0.00
2018-06-14T00:28:59.705Z,0.00
2018-06-14T00:29:59.653Z,0.00
2018-06-14T00:30:38.579Z,0.00
2018-06-14T00:31:38.497Z,0.00
2018-06-14T00:32:38.420Z,0.00
2018-06-14T00:33:59.343Z,0.00
2018-06-14T00:34:59.261Z,0.00
2018-06-14T00:35:38.202Z,0.00
2018-06-14T00:36:38.915Z,0.00
2018-06-14T00:37:38.827Z,0.00
2018-06-14T00:38:58.971Z,0.00
2018-06-14T00:39:58.886Z,0.00
2018-06-14T00:40:37.837Z,0.00
2018-06-14T00:41:37.750Z,0.00
2018-06-14T00:42:37.682Z,0.00
2018-06-14T00:43:58.590Z,0.00
2018-06-14T00:44:58.511Z,0.00
2018-06-14T00:45:37.467Z,0.00
2018-06-14T00:46:37.393Z,0.00
2018-06-14T00:47:37.328Z,0.00
2018-06-14T00:48:58.214Z,0.00
2018-06-14T00:49:58.161Z,0.00
2018-06-14T00:50:37.830Z,0.00
2018-06-14T00:51:37.760Z,0.00
2018-06-14T00:52:36.936Z,0.00
2018-06-14T00:53:57.868Z,0.00
2018-06-14T00:54:57.786Z,0.00
2018-06-14T00:55:36.716Z,0.00
2018-06-14T00:56:36.632Z,0.00
2018-06-14T00:57:36.566Z,0.00
2018-06-14T00:58:58.369Z,0.00
2018-06-14T00:59:57.381Z,0.00
2018-06-14T01:00:36.328Z,0.00
2018-06-14T01:01:36.256Z,0.00
2018-06-14T01:02:36.194Z,0.00
2018-06-14T01:03:57.123Z,0.00
2018-06-14T01:04:57.016Z,0.00
2018-06-14T01:05:35.952Z,0.00
2018-06-14T01:06:35.946Z,0.00
2018-06-14T01:07:35.800Z,0.00
2018-06-14T01:08:56.711Z,0.00
2018-06-14T01:09:56.636Z,0.00
2018-06-14T01:10:35.584Z,0.00
2018-06-14T01:11:35.507Z,0.00
2018-06-14T01:12:35.432Z,0.00
2018-06-14T01:13:56.357Z,0.00
2018-06-14T01:14:56.270Z,0.00
2018-06-14T01:15:35.196Z,0.00
2018-06-14T01:16:35.138Z,0.00
2018-06-14T01:17:35.058Z,0.00
2018-06-14T01:18:55.966Z,0.00
2018-06-14T01:19:55.977Z,0.00
2018-06-14T01:20:34.856Z,0.00
2018-06-14T01:21:34.787Z,0.00
2018-06-14T01:22:34.684Z,0.00
2018-06-14T01:23:55.591Z,0.00
2018-06-14T01:24:55.518Z,0.00
2018-06-14T01:25:34.468Z,0.00
2018-06-14T01:26:34.385Z,0.00
2018-06-14T01:27:34.306Z,0.00
2018-06-14T01:28:55.211Z,0.00
2018-06-14T01:29:55.152Z,0.00
2018-06-14T01:30:34.086Z,0.00
2018-06-14T01:31:34.005Z,0.00
2018-06-14T01:32:33.941Z,0.00
2018-06-14T01:33:54.843Z,0.00
2018-06-14T01:34:54.801Z,0.00
2018-06-14T01:35:33.702Z,0.00
2018-06-14T01:36:33.632Z,0.00
2018-06-14T01:37:33.556Z,0.00
2018-06-14T01:38:54.471Z,0.00
2018-06-14T01:39:54.394Z,0.00
2018-06-14T01:40:33.336Z,0.00
2018-06-14T01:41:33.262Z,0.00
2018-06-14T01:42:33.212Z,0.00
2018-06-14T01:43:54.092Z,0.00
2018-06-14T01:44:54.022Z,0.00
2018-06-14T01:45:32.959Z,0.00
2018-06-14T01:46:32.878Z,0.00
2018-06-14T01:47:32.832Z,0.00
2018-06-14T01:48:53.724Z,0.00
2018-06-14T01:49:53.628Z,0.00
2018-06-14T01:50:32.610Z,0.00
2018-06-14T01:51:32.507Z,0.00
2018-06-14T01:52:32.436Z,0.00
2018-06-14T01:53:53.342Z,0.00
2018-06-14T01:54:53.250Z,0.00
2018-06-14T01:55:32.211Z,0.00
2018-06-14T01:56:32.160Z,0.00
2018-06-14T01:57:32.845Z,0.00
2018-06-14T01:58:52.955Z,0.00
2018-06-14T01:59:52.876Z,0.00
2018-06-14T02:00:31.834Z,0.00
2018-06-14T02:01:31.749Z,0.00
2018-06-14T02:02:31.690Z,0.00
2018-06-14T02:03:52.579Z,0.00
2018-06-14T02:04:52.506Z,0.00
2018-06-14T02:05:31.469Z,0.00
2018-06-14T02:06:31.377Z,0.00
2018-06-14T02:07:31.399Z,0.00
2018-06-14T02:08:52.201Z,0.00
2018-06-14T02:09:52.171Z,0.00
2018-06-14T02:10:32.865Z,0.00
2018-06-14T02:11:31.813Z,0.00
2018-06-14T02:12:30.934Z,0.00
2018-06-14T02:13:51.826Z,0.00
2018-06-14T02:14:51.754Z,0.00
2018-06-14T02:15:30.700Z,0.00
2018-06-14T02:16:30.647Z,0.00
2018-06-14T02:17:30.558Z,0.00
2018-06-14T02:18:51.456Z,0.00
2018-06-14T02:19:51.381Z,0.00
2018-06-14T02:20:30.335Z,0.00
2018-06-14T02:21:30.263Z,0.00
2018-06-14T02:22:30.177Z,0.00
2018-06-14T02:23:51.066Z,0.00
2018-06-14T02:24:51.005Z,0.00
2018-06-14T02:25:29.948Z,0.00
2018-06-14T02:26:29.861Z,0.00
2018-06-14T02:27:29.783Z,0.00
2018-06-14T02:28:50.698Z,0.00
2018-06-14T02:29:50.614Z,0.00
2018-06-14T02:30:29.569Z,0.00
2018-06-14T02:31:29.489Z,0.00
2018-06-14T02:32:29.415Z,0.00
2018-06-14T02:33:50.321Z,0.00
2018-06-14T02:34:50.267Z,0.00
2018-06-14T02:35:29.218Z,0.00
2018-06-14T02:36:30.946Z,0.00
2018-06-14T02:37:29.853Z,0.00
2018-06-14T02:38:49.946Z,0.00
2018-06-14T02:39:49.877Z,0.00
2018-06-14T02:40:28.803Z,0.00
2018-06-14T02:41:28.741Z,4.00
2018-06-14T02:42:28.655Z,4.00
2018-06-14T02:43:49.567Z,0.00
2018-06-14T02:44:49.496Z,0.00
2018-06-14T02:45:28.436Z,4.00
2018-06-14T02:46:28.428Z,4.00
2018-06-14T02:47:28.278Z,0.00
2018-06-14T02:48:49.306Z,4.00
2018-06-14T02:49:49.103Z,4.00
2018-06-14T02:50:28.046Z,4.00
2018-06-14T02:51:27.973Z,4.00
2018-06-14T02:52:27.918Z,4.00
2018-06-14T02:53:48.844Z,4.00
2018-06-14T02:54:48.744Z,8.00
2018-06-14T02:55:27.677Z,8.00
2018-06-14T02:56:27.579Z,8.00
2018-06-14T02:57:27.538Z,12.00
2018-06-14T02:58:48.435Z,12.00
2018-06-14T02:59:48.361Z,16.00
2018-06-14T03:00:27.325Z,16.00
2018-06-14T03:01:27.245Z,16.00
2018-06-14T03:02:27.164Z,20.00
2018-06-14T03:03:48.056Z,24.00
2018-06-14T03:04:47.983Z,24.00
2018-06-14T03:05:26.920Z,28.00
2018-06-14T03:06:26.865Z,32.00
2018-06-14T03:07:26.778Z,36.00
2018-06-14T03:08:47.683Z,40.00
2018-06-14T03:09:47.603Z,44.00
2018-06-14T03:10:26.552Z,48.00
2018-06-14T03:11:26.516Z,48.00
2018-06-14T03:12:26.437Z,52.00
2018-06-14T03:13:47.300Z,60.00
2018-06-14T03:14:47.222Z,64.00
2018-06-14T03:15:26.173Z,68.00
2018-06-14T03:16:26.085Z,76.00
2018-06-14T03:17:26.020Z,80.00
2018-06-14T03:18:46.928Z,88.00
2018-06-14T03:19:46.846Z,92.00
2018-06-14T03:20:25.800Z,100.00
2018-06-14T03:21:25.724Z,108.00
2018-06-14T03:22:25.643Z,112.00
2018-06-14T03:23:46.579Z,124.00
2018-06-14T03:24:46.511Z,128.00
2018-06-14T03:25:25.412Z,136.00
2018-06-14T03:26:25.353Z,148.00
2018-06-14T03:27:25.277Z,156.00
2018-06-14T03:28:46.165Z,168.00
2018-06-14T03:29:46.084Z,180.00
2018-06-14T03:30:25.136Z,192.00
2018-06-14T03:31:24.952Z,204.00
2018-06-14T03:32:24.872Z,220.00
2018-06-14T03:33:45.809Z,236.00
2018-06-14T03:34:45.712Z,252.00
2018-06-14T03:35:24.644Z,264.00
2018-06-14T03:36:24.565Z,276.00
2018-06-14T03:37:24.493Z,292.00
2018-06-14T03:38:45.418Z,300.00
2018-06-14T03:39:45.327Z,312.00
2018-06-14T03:40:24.267Z,332.00
2018-06-14T03:41:24.200Z,344.00
2018-06-14T03:42:24.119Z,364.00
2018-06-14T03:43:45.056Z,380.00
2018-06-14T03:44:44.952Z,392.00
2018-06-14T03:45:23.893Z,408.00
2018-06-14T03:46:23.882Z,416.00
2018-06-14T03:47:23.813Z,428.00
2018-06-14T03:48:44.638Z,436.00
2018-06-14T03:49:44.568Z,444.00
2018-06-14T03:50:23.524Z,452.00
2018-06-14T03:51:23.442Z,460.00
2018-06-14T03:52:23.374Z,468.00
2018-06-14T03:53:44.285Z,472.00
2018-06-14T03:54:44.208Z,488.00
2018-06-14T03:55:23.142Z,500.00
2018-06-14T03:56:23.060Z,516.00
2018-06-14T03:57:22.977Z,532.00
2018-06-14T03:58:43.889Z,552.00
2018-06-14T03:59:43.826Z,560.00
2018-06-14T04:00:22.805Z,576.00
2018-06-14T04:01:22.673Z,596.00
2018-06-14T04:02:22.614Z,604.00
2018-06-14T04:03:43.520Z,608.00
2018-06-14T04:04:43.501Z,608.00
2018-06-14T04:05:22.376Z,596.00
2018-06-14T04:06:22.318Z,600.00
2018-06-14T04:07:22.247Z,596.00
2018-06-14T04:08:43.175Z,604.00
2018-06-14T04:09:43.075Z,612.00
2018-06-14T04:10:22.017Z,620.00
2018-06-14T04:11:21.945Z,620.00
2018-06-14T04:12:21.866Z,636.00
2018-06-14T04:13:42.760Z,680.00
2018-06-14T04:14:42.661Z,688.00
2018-06-14T04:15:21.648Z,656.00
2018-06-14T04:16:21.571Z,644.00
2018-06-14T04:17:21.483Z,652.00
2018-06-14T04:18:42.385Z,656.00
2018-06-14T04:19:42.327Z,672.00
2018-06-14T04:20:21.293Z,680.00
2018-06-14T04:21:21.171Z,688.00
2018-06-14T04:22:21.088Z,708.00
2018-06-14T04:23:42.008Z,720.00
2018-06-14T04:24:41.931Z,732.00
2018-06-14T04:25:20.862Z,720.00
2018-06-14T04:26:20.848Z,728.00
2018-06-14T04:27:20.729Z,732.00
2018-06-14T04:28:41.645Z,736.00
2018-06-14T04:29:41.547Z,744.00
2018-06-14T04:30:20.487Z,776.00
2018-06-14T04:31:20.431Z,820.00
2018-06-14T04:32:20.351Z,892.00
2018-06-14T04:33:41.247Z,940.00
2018-06-14T04:34:41.169Z,940.00
2018-06-14T04:35:20.111Z,920.00
2018-06-14T04:36:20.040Z,900.00
2018-06-14T04:37:19.973Z,876.00
2018-06-14T04:38:40.866Z,868.00
2018-06-14T04:39:40.808Z,876.00
2018-06-14T04:40:19.733Z,924.00
2018-06-14T04:41:19.676Z,992.00
2018-06-14T04:42:19.647Z,1052.00
2018-06-14T04:43:40.489Z,1060.00
2018-06-14T04:44:40.416Z,1068.00
2018-06-14T04:45:19.337Z,1072.00
2018-06-14T04:46:19.287Z,1076.00
2018-06-14T04:47:19.211Z,1068.00
2018-06-14T04:48:40.947Z,1072.00
2018-06-14T04:49:40.842Z,1092.00
2018-06-14T04:50:18.991Z,1120.00
2018-06-14T04:51:18.893Z,1124.00
2018-06-14T04:52:18.828Z,1116.00
2018-06-14T04:53:39.732Z,1148.00
2018-06-14T04:54:40.893Z,1160.00
2018-06-14T04:55:18.600Z,1104.00
2018-06-14T04:56:18.520Z,1112.00
2018-06-14T04:57:18.467Z,1100.00
2018-06-14T04:58:39.365Z,1136.00
2018-06-14T04:59:39.305Z,1188.00
2018-06-14T05:00:18.236Z,1272.00
2018-06-14T05:01:18.145Z,1336.00
2018-06-14T05:02:18.101Z,1384.00
2018-06-14T05:03:39.818Z,1376.00
2018-06-14T05:04:38.930Z,1320.00
2018-06-14T05:05:17.844Z,1248.00
2018-06-14T05:06:17.771Z,1256.00
2018-06-14T05:07:17.687Z,1284.00
2018-06-14T05:08:38.612Z,1284.00
2018-06-14T05:09:38.550Z,1352.00
2018-06-14T05:10:17.550Z,1416.00
2018-06-14T05:11:17.433Z,1436.00
2018-06-14T05:12:17.332Z,1404.00
2018-06-14T05:13:38.277Z,1440.00
2018-06-14T05:14:38.194Z,1452.00
2018-06-14T05:15:17.101Z,1464.00
2018-06-14T05:16:17.027Z,1548.00
2018-06-14T05:17:16.955Z,1560.00
2018-06-14T05:18:37.868Z,1496.00
2018-06-14T05:19:37.791Z,1384.00
2018-06-14T05:20:16.736Z,1360.00
2018-06-14T05:21:16.654Z,1284.00
2018-06-14T05:22:16.560Z,1244.00
2018-06-14T05:23:37.573Z,1208.00
2018-06-14T05:24:37.460Z,1212.00
2018-06-14T05:25:16.354Z,1280.00
2018-06-14T05:26:16.290Z,1300.00
2018-06-14T05:27:16.205Z,1268.00
2018-06-14T05:28:38.820Z,1260.00
2018-06-14T05:29:37.897Z,1260.00
2018-06-14T05:30:15.975Z,1240.00
2018-06-14T05:31:15.894Z,1224.00
2018-06-14T05:32:15.859Z,1132.00
2018-06-14T05:33:36.751Z,1072.00
2018-06-14T05:34:36.688Z,992.00
2018-06-14T05:35:15.621Z,976.00
2018-06-14T05:36:15.545Z,1036.00
2018-06-14T05:37:15.464Z,1012.00
2018-06-14T05:38:36.410Z,984.00
2018-06-14T05:39:36.303Z,976.00
2018-06-14T05:40:15.243Z,1000.00
2018-06-14T05:41:15.162Z,1076.00
2018-06-14T05:42:15.127Z,1088.00
2018-06-14T05:43:36.824Z,1100.00
2018-06-14T05:44:35.905Z,1064.00
2018-06-14T05:45:14.856Z,1032.00
2018-06-14T05:46:14.805Z,1056.00
2018-06-14T05:47:14.729Z,1092.00
2018-06-14T05:48:35.639Z,1196.00
2018-06-14T05:49:35.537Z,1360.00
2018-06-14T05:50:14.487Z,1404.00
2018-06-14T05:51:14.432Z,1436.00
2018-06-14T05:52:14.336Z,1736.00
2018-06-14T05:53:35.318Z,1736.00
2018-06-14T05:54:35.207Z,1556.00
2018-06-14T05:55:14.127Z,1516.00
2018-06-14T05:56:14.039Z,1596.00
2018-06-14T05:57:14.004Z,1604.00
2018-06-14T05:58:34.885Z,1600.00
2018-06-14T05:59:34.804Z,1612.00
2018-06-14T06:00:13.762Z,1640.00
2018-06-14T06:01:13.681Z,1628.00
2018-06-14T06:02:13.594Z,1652.00
2018-06-14T06:03:35.913Z,1660.00
2018-06-14T06:04:34.456Z,1652.00
2018-06-14T06:05:13.436Z,1620.00
2018-06-14T06:06:13.311Z,1624.00
2018-06-14T06:07:13.238Z,1648.00
2018-06-14T06:08:34.149Z,1668.00
2018-06-14T06:09:34.896Z,1696.00
2018-06-14T06:10:13.859Z,1716.00
2018-06-14T06:11:12.940Z,1692.00
2018-06-14T06:12:12.905Z,1696.00
2018-06-14T06:13:35.831Z,1740.00
2018-06-14T06:14:33.714Z,1704.00
2018-06-14T06:15:12.655Z,1668.00
2018-06-14T06:16:12.570Z,1656.00
2018-06-14T06:17:12.494Z,1648.00
2018-06-14T06:18:33.698Z,1596.00
2018-06-14T06:19:33.376Z,1608.00
2018-06-14T06:20:12.310Z,1632.00
2018-06-14T06:21:12.211Z,1628.00
2018-06-14T06:22:13.850Z,1640.00
2018-06-14T06:23:33.967Z,1644.00
2018-06-14T06:24:33.842Z,1684.00
2018-06-14T06:25:11.891Z,1684.00
2018-06-14T06:26:11.874Z,1676.00
2018-06-14T06:27:11.866Z,1644.00
2018-06-14T06:28:32.656Z,1664.00
2018-06-14T06:29:32.644Z,1692.00
2018-06-14T06:30:11.544Z,1712.00
2018-06-14T06:31:11.455Z,1732.00
2018-06-14T06:32:11.393Z,1728.00
2018-06-14T06:33:32.349Z,1756.00
2018-06-14T06:34:32.224Z,1752.00
2018-06-14T06:35:11.169Z,1768.00
2018-06-14T06:36:12.837Z,1760.00
2018-06-14T06:37:11.031Z,1740.00
2018-06-14T06:38:31.933Z,1776.00
2018-06-14T06:39:31.856Z,1816.00
2018-06-14T06:40:10.789Z,1832.00
2018-06-14T06:41:10.730Z,1876.00
2018-06-14T06:42:10.643Z,1892.00
2018-06-14T06:43:31.583Z,1916.00
2018-06-14T06:44:31.500Z,1924.00
2018-06-14T06:45:10.436Z,1884.00
2018-06-14T06:46:10.409Z,1876.00
2018-06-14T06:47:10.295Z,1964.00
2018-06-14T06:48:31.225Z,1984.00
2018-06-14T06:49:31.124Z,1960.00
2018-06-14T06:50:10.078Z,1972.00
2018-06-14T06:51:10.026Z,1984.00
2018-06-14T06:52:09.924Z,1992.00
2018-06-14T06:53:30.858Z,1992.00
2018-06-14T06:54:30.809Z,1996.00
2018-06-14T06:55:09.754Z,1992.00
2018-06-14T06:56:09.627Z,2000.00
2018-06-14T06:57:09.605Z,1984.00
2018-06-14T06:58:30.491Z,1980.00
2018-06-14T06:59:30.420Z,1956.00
2018-06-14T07:00:09.377Z,1944.00
2018-06-14T07:01:09.297Z,1820.00
2018-06-14T07:02:09.220Z,1888.00
2018-06-14T07:03:30.123Z,1932.00
2018-06-14T07:04:30.039Z,2004.00
2018-06-14T07:05:08.999Z,2076.00
2018-06-14T07:06:09.015Z,2112.00
2018-06-14T07:07:08.840Z,2120.00
2018-06-14T07:08:29.779Z,2120.00
2018-06-14T07:09:29.694Z,2088.00
2018-06-14T07:10:08.622Z,2092.00
2018-06-14T07:11:08.552Z,2116.00
2018-06-14T07:12:08.473Z,2148.00
2018-06-14T07:13:29.426Z,2016.00
2018-06-14T07:14:29.316Z,2040.00
2018-06-14T07:15:08.261Z,2048.00
2018-06-14T07:16:08.186Z,2144.00
2018-06-14T07:17:08.108Z,2208.00
2018-06-14T07:18:29.019Z,2228.00
2018-06-14T07:19:28.957Z,2228.00
2018-06-14T07:20:07.891Z,2172.00
2018-06-14T07:21:07.956Z,2060.00
2018-06-14T07:22:07.758Z,2152.00
2018-06-14T07:23:28.720Z,2180.00
2018-06-14T07:24:28.597Z,2272.00
2018-06-14T07:25:07.552Z,2324.00
2018-06-14T07:26:07.475Z,2332.00
2018-06-14T07:27:07.392Z,2336.00
2018-06-14T07:28:28.329Z,2356.00
2018-06-14T07:29:28.240Z,2384.00
2018-06-14T07:30:07.191Z,2420.00
2018-06-14T07:31:07.138Z,2464.00
2018-06-14T07:32:07.113Z,2488.00
2018-06-14T07:33:27.991Z,2476.00
2018-06-14T07:34:27.866Z,2504.00
2018-06-14T07:35:06.821Z,2496.00
2018-06-14T07:36:06.756Z,2540.00
2018-06-14T07:37:06.670Z,2572.00
2018-06-14T07:38:27.583Z,2592.00
2018-06-14T07:39:27.519Z,2580.00
2018-06-14T07:40:06.462Z,2620.00
2018-06-14T07:41:06.391Z,2672.00
2018-06-14T07:42:06.365Z,2692.00
2018-06-14T07:43:27.237Z,2708.00
2018-06-14T07:44:27.175Z,2736.00
2018-06-14T07:45:06.963Z,2768.00
2018-06-14T07:46:06.900Z,2784.00
2018-06-14T07:47:05.960Z,2788.00
2018-06-14T07:48:26.879Z,2756.00
2018-06-14T07:49:26.821Z,2736.00
2018-06-14T07:50:05.780Z,2716.00
2018-06-14T07:51:05.689Z,2660.00
2018-06-14T07:52:05.611Z,2716.00
2018-06-14T07:53:26.531Z,2728.00
2018-06-14T07:54:26.461Z,2708.00
2018-06-14T07:55:05.392Z,2724.00
2018-06-14T07:56:05.318Z,2748.00
2018-06-14T07:57:05.271Z,2836.00
2018-06-14T07:58:26.169Z,2904.00
2018-06-14T07:59:26.098Z,2916.00
2018-06-14T08:00:05.930Z,2924.00
2018-06-14T08:01:04.998Z,2952.00
2018-06-14T08:02:04.912Z,3008.00
2018-06-14T08:03:25.818Z,3064.00
2018-06-14T08:04:25.779Z,3056.00
2018-06-14T08:05:04.804Z,3052.00
2018-06-14T08:06:04.630Z,3140.00
2018-06-14T08:07:04.555Z,3188.00
2018-06-14T08:08:25.470Z,3248.00
2018-06-14T08:09:25.396Z,3300.00
2018-06-14T08:10:04.346Z,3332.00
2018-06-14T08:11:04.295Z,3384.00
2018-06-14T08:12:04.206Z,3416.00
2018-06-14T08:13:25.115Z,3448.00
2018-06-14T08:14:25.040Z,3480.00
2018-06-14T08:15:03.982Z,3504.00
2018-06-14T08:16:03.934Z,3560.00
2018-06-14T08:17:03.855Z,3596.00
2018-06-14T08:18:24.763Z,3616.00
2018-06-14T08:19:24.694Z,3680.00
2018-06-14T08:20:03.646Z,3712.00
2018-06-14T08:21:03.574Z,3732.00
2018-06-14T08:22:03.504Z,3724.00
2018-06-14T08:23:24.413Z,3716.00
2018-06-14T08:24:24.351Z,3740.00
2018-06-14T08:25:03.309Z,3704.00
2018-06-14T08:26:03.229Z,3688.00
2018-06-14T08:27:03.208Z,3724.00
2018-06-14T08:28:24.060Z,3764.00
2018-06-14T08:29:24.007Z,3692.00
2018-06-14T08:30:02.939Z,3712.00
2018-06-14T08:31:02.871Z,3804.00
2018-06-14T08:32:02.813Z,3948.00
2018-06-14T08:33:23.722Z,4056.00
2018-06-14T08:34:23.662Z,4112.00
2018-06-14T08:35:02.597Z,4216.00
2018-06-14T08:36:02.517Z,4356.00
2018-06-14T08:37:02.482Z,4492.00
2018-06-14T08:38:23.392Z,4756.00
2018-06-14T08:39:23.300Z,5180.00
2018-06-14T08:40:02.247Z,5880.00
2018-06-14T08:41:02.187Z,6628.00
2018-06-14T08:42:02.975Z,7388.00
2018-06-14T08:43:23.009Z,8236.00
2018-06-14T08:44:22.944Z,8660.00
2018-06-14T08:45:01.939Z,9308.00
2018-06-14T08:46:01.818Z,10616.00
2018-06-14T08:47:01.791Z,11300.00
2018-06-14T08:48:22.677Z,10052.00
2018-06-14T08:49:22.623Z,9248.00
2018-06-14T08:50:01.554Z,8580.00
2018-06-14T08:51:01.485Z,8580.00
2018-06-14T08:52:01.421Z,8028.00
2018-06-14T08:53:22.336Z,7536.00
2018-06-14T08:54:22.262Z,7628.00
2018-06-14T08:55:01.279Z,8480.00
2018-06-14T08:56:02.878Z,8260.00
2018-06-14T08:57:01.947Z,7816.00
2018-06-14T08:58:21.992Z,8132.00
2018-06-14T08:59:21.928Z,9448.00
2018-06-14T09:00:00.858Z,10256.00
2018-06-14T09:01:00.840Z,10240.00
2018-06-14T09:02:00.730Z,11152.00
2018-06-14T09:03:21.637Z,9400.00
2018-06-14T09:04:21.561Z,7448.00
2018-06-14T09:05:00.562Z,7860.00
2018-06-14T09:06:00.464Z,8788.00
2018-06-14T09:07:00.513Z,8652.00
2018-06-14T09:08:21.312Z,7552.00
2018-06-14T09:09:21.238Z,8280.00
2018-06-14T09:10:00.223Z,10044.00
2018-06-14T09:11:01.881Z,12588.00
2018-06-14T09:12:00.928Z,8880.00
2018-06-14T09:13:20.959Z,9660.00
2018-06-14T09:14:20.920Z,11448.00
2018-06-14T09:14:59.833Z,24864.00
2018-06-14T09:15:59.761Z,9688.00
2018-06-14T09:16:59.699Z,15208.00
2018-06-14T09:18:20.621Z,18048.00
2018-06-14T09:19:20.574Z,79296.00
2018-06-14T09:19:59.501Z,45984.00
2018-06-14T09:20:59.428Z,39552.00
2018-06-14T09:21:59.403Z,29088.00
2018-06-14T09:23:21.215Z,29792.00
2018-06-14T09:24:20.212Z,11968.00
2018-06-14T09:24:59.170Z,10332.00
2018-06-14T09:25:59.122Z,10292.00
2018-06-14T09:26:59.030Z,59168.00
2018-06-14T09:28:19.954Z,8308.00
2018-06-14T09:29:19.896Z,7288.00
2018-06-14T09:29:58.891Z,7904.00
2018-06-14T09:30:58.784Z,12540.00
2018-06-14T09:31:58.717Z,75264.00
2018-06-14T09:33:19.623Z,68064.00
2018-06-14T09:34:19.556Z,73504.00
2018-06-14T09:34:58.547Z,72864.00
2018-06-14T09:35:58.437Z,16412.00
2018-06-14T09:36:58.436Z,72640.00
2018-06-14T09:38:19.318Z,8540.00
2018-06-14T09:39:19.287Z,8288.00
2018-06-14T09:39:58.198Z,14176.00
2018-06-14T09:40:58.162Z,10976.00
2018-06-14T09:41:58.067Z,10708.00
2018-06-14T09:43:18.981Z,17184.00
2018-06-14T09:44:18.907Z,56640.00
2018-06-14T09:44:57.882Z,68416.00
2018-06-14T09:45:57.875Z,10668.00
2018-06-14T09:46:57.743Z,69280.00
2018-06-14T09:48:18.670Z,60512.00
2018-06-14T09:49:18.592Z,8780.00
2018-06-14T09:49:57.550Z,8788.00
2018-06-14T09:50:57.476Z,13972.00
2018-06-14T09:51:57.424Z,14852.00
2018-06-14T09:53:18.329Z,9200.00
2018-06-14T09:54:18.280Z,6624.00
2018-06-14T09:54:57.215Z,10224.00
2018-06-14T09:55:57.169Z,58624.00
2018-06-14T09:56:57.088Z,66976.00
2018-06-14T09:58:18.000Z,71936.00
2018-06-14T09:59:17.934Z,69088.00
2018-06-14T09:59:56.903Z,65696.00
2018-06-14T10:00:56.836Z,67616.00
2018-06-14T10:01:56.791Z,63840.00
2018-06-14T10:03:17.730Z,65920.00
2018-06-14T10:04:17.628Z,66272.00
2018-06-14T10:04:56.570Z,73024.00
2018-06-14T10:05:56.568Z,76416.00
2018-06-14T10:06:56.453Z,18304.00
2018-06-14T10:08:17.401Z,66976.00
2018-06-14T10:09:17.310Z,67712.00
2018-06-14T10:09:56.288Z,65472.00
2018-06-14T10:10:56.254Z,69984.00
2018-06-14T10:11:56.162Z,39456.00
2018-06-14T10:13:17.075Z,75232.00
2018-06-14T10:14:17.065Z,74240.00
2018-06-14T10:14:55.964Z,41088.00
2018-06-14T10:15:55.928Z,37888.00
2018-06-14T10:16:55.851Z,79872.00
2018-06-14T10:18:16.783Z,79360.00
2018-06-14T10:19:16.726Z,81792.00
2018-06-14T10:19:55.653Z,67360.00
2018-06-14T10:20:55.605Z,44960.00
2018-06-14T10:21:55.555Z,35168.00
2018-06-14T10:23:16.477Z,51168.00
2018-06-14T10:24:16.464Z,11824.00
2018-06-14T10:24:55.377Z,22464.00
2018-06-14T10:25:55.321Z,13244.00
2018-06-14T10:26:55.283Z,11448.00
2018-06-14T10:28:16.187Z,11564.00
2018-06-14T10:29:16.171Z,11504.00
2018-06-14T10:29:55.083Z,11092.00
2018-06-14T10:30:55.004Z,20384.00
2018-06-14T10:31:54.953Z,87104.00
2018-06-14T10:33:15.875Z,13752.00
2018-06-14T10:34:15.815Z,10484.00
2018-06-14T10:34:54.795Z,18816.00
2018-06-14T10:35:54.697Z,9756.00
2018-06-14T10:36:54.635Z,9452.00
2018-06-14T10:38:15.569Z,11696.00
2018-06-14T10:39:15.504Z,22944.00
2018-06-14T10:39:54.459Z,41088.00
2018-06-14T10:40:54.426Z,31136.00
2018-06-14T10:41:54.326Z,12688.00
2018-06-14T10:43:15.268Z,12208.00
2018-06-14T10:44:15.287Z,11360.00
2018-06-14T10:44:54.145Z,10156.00
2018-06-14T10:45:54.131Z,13080.00
2018-06-14T10:46:54.037Z,13368.00
2018-06-14T10:48:15.009Z,11520.00
2018-06-14T10:49:14.898Z,14668.00
2018-06-14T10:49:53.839Z,15004.00
2018-06-14T10:50:53.777Z,12664.00
2018-06-14T10:51:53.712Z,30208.00
2018-06-14T10:53:14.633Z,16652.00
2018-06-14T10:54:14.555Z,15496.00
2018-06-14T10:54:53.504Z,9932.00
2018-06-14T10:55:53.453Z,9188.00
2018-06-14T10:56:53.438Z,7672.00
2018-06-14T10:58:14.392Z,7828.00
2018-06-14T10:59:14.237Z,6344.00
2018-06-14T10:59:53.254Z,6344.00
2018-06-14T11:00:53.147Z,6700.00
2018-06-14T11:01:53.092Z,7508.00
2018-06-14T11:03:13.975Z,10988.00
2018-06-14T11:04:13.913Z,71072.00
2018-06-14T11:04:52.856Z,18240.00
2018-06-14T11:05:52.836Z,9032.00
2018-06-14T11:06:52.721Z,12244.00
2018-06-14T11:08:13.646Z,27488.00
2018-06-14T11:09:13.579Z,10060.00
2018-06-14T11:09:52.535Z,19424.00
2018-06-14T11:10:52.502Z,12408.00
2018-06-14T11:11:52.477Z,10960.00
2018-06-14T11:13:13.394Z,10396.00
2018-06-14T11:14:13.260Z,8492.00
2018-06-14T11:14:52.221Z,8700.00
2018-06-14T11:15:52.143Z,50144.00
2018-06-14T11:16:52.073Z,70208.00
2018-06-14T11:18:13.002Z,87136.00
2018-06-14T11:19:12.927Z,91520.00
2018-06-14T11:19:51.969Z,91584.00
2018-06-14T11:20:51.808Z,91360.00
2018-06-14T11:21:51.773Z,89600.00
2018-06-14T11:23:12.664Z,89792.00
2018-06-14T11:24:12.630Z,90880.00
2018-06-14T11:24:51.574Z,94400.00
2018-06-14T11:25:51.494Z,11100.00
2018-06-14T11:26:51.438Z,10056.00
2018-06-14T11:28:12.351Z,9268.00
2018-06-14T11:29:12.323Z,14560.00
2018-06-14T11:29:51.266Z,17696.00
2018-06-14T11:30:51.191Z,20320.00
2018-06-14T11:31:51.109Z,14544.00
2018-06-14T11:33:12.044Z,14792.00
2018-06-14T11:34:11.974Z,12640.00
2018-06-14T11:34:50.914Z,12008.00
2018-06-14T11:35:50.867Z,12720.00
2018-06-14T11:36:50.795Z,8864.00
2018-06-14T11:38:11.728Z,8456.00
2018-06-14T11:39:11.660Z,8864.00
2018-06-14T11:39:50.624Z,28320.00
2018-06-14T11:40:50.545Z,14324.00
2018-06-14T11:41:50.473Z,18624.00
2018-06-14T11:43:11.406Z,14496.00
2018-06-14T11:44:11.346Z,13592.00
2018-06-14T11:44:50.300Z,12772.00
2018-06-14T11:45:50.226Z,14012.00
2018-06-14T11:46:50.161Z,11516.00
2018-06-14T11:48:11.083Z,9780.00
2018-06-14T11:49:11.944Z,9728.00
2018-06-14T11:49:49.976Z,10528.00
2018-06-14T11:50:49.927Z,11320.00
2018-06-14T11:51:49.856Z,11264.00
2018-06-14T11:53:10.786Z,9600.00
2018-06-14T11:54:10.697Z,10080.00
2018-06-14T11:54:49.676Z,15532.00
2018-06-14T11:55:49.611Z,40000.00
2018-06-14T11:56:49.527Z,13240.00
2018-06-14T11:58:10.446Z,13332.00
2018-06-14T11:59:10.380Z,15048.00
2018-06-14T11:59:49.330Z,13132.00
2018-06-14T12:00:49.248Z,11524.00
2018-06-14T12:01:49.258Z,10424.00
2018-06-14T12:03:12.942Z,9864.00
2018-06-14T12:04:10.983Z,9348.00
2018-06-14T12:04:48.992Z,9524.00
2018-06-14T12:05:48.934Z,11488.00
2018-06-14T12:06:48.872Z,14280.00
2018-06-14T12:08:09.794Z,13176.00
2018-06-14T12:09:09.722Z,14124.00
2018-06-14T12:09:48.715Z,19744.00
2018-06-14T12:10:48.612Z,13388.00
2018-06-14T12:11:48.538Z,14672.00
2018-06-14T12:13:09.470Z,14252.00
2018-06-14T12:14:09.515Z,15276.00
2018-06-14T12:14:48.352Z,14512.00
2018-06-14T12:15:48.266Z,13964.00
2018-06-14T12:16:48.229Z,12708.00
2018-06-14T12:18:11.963Z,13448.00
2018-06-14T12:19:10.962Z,14484.00
2018-06-14T12:19:48.015Z,14316.00